sensor_id;sensor_type;location;lat;lon;timestamp;pressure;altitude;pressure_sealevel;temperature;humidity
22255;BME280;11296;42.684;23.322;2022-10-18T00:01:33;96769.25;;;7.72;100.00
22255;BME280;11296;42.684;23.322;2022-10-18T00:03:59;96773.03;;;7.75;100.00
22255;BME280;11296;42.684;23.322;2022-10-18T00:06:24;96776.88;;;7.74;100.00
22255;BME280;11296;42.684;23.322;2022-10-18T00:08:50;96751.19;;;7.53;100.00
22255;BME280;11296;42.684;23.322;2022-10-18T00:11:16;96719.47;;;7.25;100.00
22255;BME280;11296;42.684;23.322;2022-10-18T00:13:42;96776.44;;;7.52;100.00
22255;BME280;11296;42.684;23.322;2022-10-18T00:16:13;96709.56;;;7.22;100.00
22255;BME280;11296;42.684;23.322;2022-10-18T00:18:40;96719.09;;;7.23;100.00
22255;BME280;11296;42.684;23.322;2022-10-18T00:21:17;96708.16;;;7.14;100.00
22255;BME280;11296;42.684;23.322;2022-10-18T00:23:44;96744.50;;;7.38;100.00
22255;BME280;11296;42.684;23.322;2022-10-18T00:26:14;96715.78;;;7.15;100.00
22255;BME280;11296;42.684;23.322;2022-10-18T00:28:40;96696.53;;;6.97;100.00
22255;BME280;11296;42.684;23.322;2022-10-18T00:33:37;96711.38;;;7.02;100.00
22255;BME280;11296;42.684;23.322;2022-10-18T00:36:02;96717.84;;;7.04;100.00
22255;BME280;11296;42.684;23.322;2022-10-18T00:38:28;96693.97;;;6.90;100.00
22255;BME280;11296;42.684;23.322;2022-10-18T00:40:54;96730.72;;;7.13;100.00
22255;BME280;11296;42.684;23.322;2022-10-18T00:43:19;96722.53;;;6.97;100.00
22255;BME280;11296;42.684;23.322;2022-10-18T00:45:45;96724.84;;;6.95;100.00
22255;BME280;11296;42.684;23.322;2022-10-18T00:48:12;96716.53;;;6.89;100.00
22255;BME280;11296;42.684;23.322;2022-10-18T00:50:39;96718.63;;;7.05;100.00
22255;BME280;11296;42.684;23.322;2022-10-18T00:53:09;96709.25;;;6.90;100.00
22255;BME280;11296;42.684;23.322;2022-10-18T00:55:36;96718.63;;;7.05;100.00
22255;BME280;11296;42.684;23.322;2022-10-18T00:58:03;96689.47;;;6.84;100.00
22255;BME280;11296;42.684;23.322;2022-10-18T01:00:29;96709.34;;;6.83;100.00
22255;BME280;11296;42.684;23.322;2022-10-18T01:02:57;96684.88;;;6.54;100.00
22255;BME280;11296;42.684;23.322;2022-10-18T01:05:24;96687.41;;;6.64;100.00
22255;BME280;11296;42.684;23.322;2022-10-18T01:10:42;96740.81;;;7.02;100.00
22255;BME280;11296;42.684;23.322;2022-10-18T01:13:40;96685.31;;;6.49;100.00
22255;BME280;11296;42.684;23.322;2022-10-18T01:16:19;96718.84;;;6.87;100.00
22255;BME280;11296;42.684;23.322;2022-10-18T01:18:56;96684.47;;;6.55;100.00
22255;BME280;11296;42.684;23.322;2022-10-18T01:32:26;96644.38;;;6.25;100.00
22255;BME280;11296;42.684;23.322;2022-10-18T01:34:58;96679.22;;;6.48;100.00
22255;BME280;11296;42.684;23.322;2022-10-18T01:37:26;96728.44;;;6.85;100.00
22255;BME280;11296;42.684;23.322;2022-10-18T01:39:55;96680.75;;;6.46;100.00
22255;BME280;11296;42.684;23.322;2022-10-18T01:42:22;96683.91;;;6.41;100.00
22255;BME280;11296;42.684;23.322;2022-10-18T01:44:51;96698.69;;;6.49;100.00
22255;BME280;11296;42.684;23.322;2022-10-18T01:47:18;96673.78;;;6.25;100.00
22255;BME280;11296;42.684;23.322;2022-10-18T01:49:44;96685.94;;;6.30;100.00
22255;BME280;11296;42.684;23.322;2022-10-18T01:52:16;96708.25;;;6.46;100.00
22255;BME280;11296;42.684;23.322;2022-10-18T01:54:45;96701.00;;;6.47;100.00
22255;BME280;11296;42.684;23.322;2022-10-18T02:00:02;96706.00;;;6.41;100.00
22255;BME280;11296;42.684;23.322;2022-10-18T02:02:45;96669.63;;;6.17;100.00
22255;BME280;11296;42.684;23.322;2022-10-18T02:05:29;96684.00;;;6.30;100.00
22255;BME280;11296;42.684;23.322;2022-10-18T02:08:08;96647.69;;;6.03;100.00
22255;BME280;11296;42.684;23.322;2022-10-18T02:10:40;96671.16;;;6.18;100.00
22255;BME280;11296;42.684;23.322;2022-10-18T02:13:10;96675.72;;;6.21;100.00
22255;BME280;11296;42.684;23.322;2022-10-18T02:15:39;96714.00;;;6.45;100.00
22255;BME280;11296;42.684;23.322;2022-10-18T02:18:10;96650.81;;;5.94;100.00
22255;BME280;11296;42.684;23.322;2022-10-18T02:20:37;96665.22;;;6.04;100.00
22255;BME280;11296;42.684;23.322;2022-10-18T02:23:05;96619.03;;;5.66;100.00
22255;BME280;11296;42.684;23.322;2022-10-18T02:25:32;96699.31;;;6.26;100.00
22255;BME280;11296;42.684;23.322;2022-10-18T02:27:59;96617.84;;;5.70;100.00
22255;BME280;11296;42.684;23.322;2022-10-18T02:36:11;96664.13;;;5.97;100.00
22255;BME280;11296;42.684;23.322;2022-10-18T02:38:40;96713.84;;;6.25;100.00
22255;BME280;11296;42.684;23.322;2022-10-18T02:41:06;96664.53;;;5.96;100.00
22255;BME280;11296;42.684;23.322;2022-10-18T02:43:32;96696.88;;;6.05;100.00
22255;BME280;11296;42.684;23.322;2022-10-18T02:46:00;96689.28;;;6.00;100.00
22255;BME280;11296;42.684;23.322;2022-10-18T02:48:26;96702.72;;;5.93;100.00
22255;BME280;11296;42.684;23.322;2022-10-18T02:50:51;96673.06;;;5.80;100.00
22255;BME280;11296;42.684;23.322;2022-10-18T02:53:17;96698.91;;;5.94;100.00
22255;BME280;11296;42.684;23.322;2022-10-18T02:55:43;96683.84;;;5.70;100.00
22255;BME280;11296;42.684;23.322;2022-10-18T02:58:08;96702.81;;;5.86;100.00
22255;BME280;11296;42.684;23.322;2022-10-18T03:00:34;96689.91;;;5.74;100.00
22255;BME280;11296;42.684;23.322;2022-10-18T03:03:00;96644.34;;;5.51;100.00
22255;BME280;11296;42.684;23.322;2022-10-18T03:05:26;96720.16;;;6.05;100.00
22255;BME280;11296;42.684;23.322;2022-10-18T03:07:51;96670.50;;;5.66;100.00
22255;BME280;11296;42.684;23.322;2022-10-18T03:10:17;96692.16;;;5.79;100.00
22255;BME280;11296;42.684;23.322;2022-10-18T03:12:43;96678.19;;;5.61;100.00
22255;BME280;11296;42.684;23.322;2022-10-18T03:15:09;96679.28;;;5.67;100.00
22255;BME280;11296;42.684;23.322;2022-10-18T03:17:34;96700.16;;;5.79;100.00
22255;BME280;11296;42.684;23.322;2022-10-18T03:20:00;96684.31;;;5.58;100.00
22255;BME280;11296;42.684;23.322;2022-10-18T03:22:26;96666.38;;;5.58;100.00
22255;BME280;11296;42.684;23.322;2022-10-18T03:24:52;96658.84;;;5.50;100.00
22255;BME280;11296;42.684;23.322;2022-10-18T03:27:18;96617.84;;;5.30;100.00
22255;BME280;11296;42.684;23.322;2022-10-18T03:29:44;96662.66;;;5.49;100.00
22255;BME280;11296;42.684;23.322;2022-10-18T03:32:09;96706.28;;;5.76;100.00
22255;BME280;11296;42.684;23.322;2022-10-18T03:34:35;96719.22;;;5.77;100.00
22255;BME280;11296;42.684;23.322;2022-10-18T03:37:01;96713.50;;;5.79;100.00
22255;BME280;11296;42.684;23.322;2022-10-18T03:39:26;96639.53;;;5.32;100.00
22255;BME280;11296;42.684;23.322;2022-10-18T03:41:54;96682.91;;;5.46;100.00
22255;BME280;11296;42.684;23.322;2022-10-18T03:44:22;96665.50;;;5.28;100.00
22255;BME280;11296;42.684;23.322;2022-10-18T03:46:47;96694.78;;;5.35;100.00
22255;BME280;11296;42.684;23.322;2022-10-18T03:49:13;96705.91;;;5.26;100.00
22255;BME280;11296;42.684;23.322;2022-10-18T03:51:38;96736.69;;;5.41;100.00
22255;BME280;11296;42.684;23.322;2022-10-18T03:54:04;96733.63;;;5.43;100.00
22255;BME280;11296;42.684;23.322;2022-10-18T03:56:30;96703.94;;;5.34;100.00
22255;BME280;11296;42.684;23.322;2022-10-18T03:58:57;96688.78;;;5.20;100.00
22255;BME280;11296;42.684;23.322;2022-10-18T04:01:23;96734.34;;;5.50;100.00
22255;BME280;11296;42.684;23.322;2022-10-18T04:03:49;96646.63;;;5.01;100.00
22255;BME280;11296;42.684;23.322;2022-10-18T04:06:14;96702.41;;;5.40;100.00
22255;BME280;11296;42.684;23.322;2022-10-18T04:08:40;96718.69;;;5.49;100.00
22255;BME280;11296;42.684;23.322;2022-10-18T04:11:06;96639.44;;;4.94;100.00
22255;BME280;11296;42.684;23.322;2022-10-18T04:13:35;96672.50;;;5.07;100.00
22255;BME280;11296;42.684;23.322;2022-10-18T04:16:01;96661.47;;;5.05;100.00
22255;BME280;11296;42.684;23.322;2022-10-18T04:18:27;96685.06;;;5.07;100.00
22255;BME280;11296;42.684;23.322;2022-10-18T04:20:53;96731.38;;;5.34;100.00
22255;BME280;11296;42.684;23.322;2022-10-18T04:23:19;96670.28;;;4.99;100.00
22255;BME280;11296;42.684;23.322;2022-10-18T04:25:44;96704.78;;;5.20;100.00
22255;BME280;11296;42.684;23.322;2022-10-18T04:28:10;96710.16;;;5.16;100.00
22255;BME280;11296;42.684;23.322;2022-10-18T04:30:38;96689.59;;;5.13;100.00
22255;BME280;11296;42.684;23.322;2022-10-18T04:33:04;96700.22;;;5.20;100.00
22255;BME280;11296;42.684;23.322;2022-10-18T04:35:30;96648.66;;;4.86;100.00
22255;BME280;11296;42.684;23.322;2022-10-18T04:37:56;96672.16;;;5.02;100.00
22255;BME280;11296;42.684;23.322;2022-10-18T04:40:21;96675.97;;;5.04;100.00
22255;BME280;11296;42.684;23.322;2022-10-18T04:42:47;96697.22;;;5.11;100.00
22255;BME280;11296;42.684;23.322;2022-10-18T04:45:13;96671.06;;;4.92;100.00
22255;BME280;11296;42.684;23.322;2022-10-18T04:47:39;96728.41;;;5.25;100.00
22255;BME280;11296;42.684;23.322;2022-10-18T04:50:04;96677.50;;;4.98;100.00
22255;BME280;11296;42.684;23.322;2022-10-18T04:52:30;96700.38;;;4.99;100.00
22255;BME280;11296;42.684;23.322;2022-10-18T04:54:56;96683.16;;;5.07;100.00
22255;BME280;11296;42.684;23.322;2022-10-18T04:57:22;96662.34;;;4.88;100.00
22255;BME280;11296;42.684;23.322;2022-10-18T04:59:47;96658.50;;;4.89;100.00
22255;BME280;11296;42.684;23.322;2022-10-18T05:02:13;96703.63;;;5.24;100.00
22255;BME280;11296;42.684;23.322;2022-10-18T05:04:39;96719.25;;;5.26;100.00
22255;BME280;11296;42.684;23.322;2022-10-18T05:07:05;96716.09;;;5.42;100.00
22255;BME280;11296;42.684;23.322;2022-10-18T05:09:31;96645.00;;;5.17;100.00
22255;BME280;11296;42.684;23.322;2022-10-18T05:11:57;96659.56;;;5.54;100.00
22255;BME280;11296;42.684;23.322;2022-10-18T05:14:23;96650.28;;;5.69;100.00
22255;BME280;11296;42.684;23.322;2022-10-18T05:16:49;96707.22;;;6.03;100.00
22255;BME280;11296;42.684;23.322;2022-10-18T05:19:14;96611.59;;;5.47;100.00
22255;BME280;11296;42.684;23.322;2022-10-18T05:21:40;96652.53;;;5.74;100.00
22255;BME280;11296;42.684;23.322;2022-10-18T05:24:06;96675.22;;;5.96;100.00
22255;BME280;11296;42.684;23.322;2022-10-18T05:26:32;96690.28;;;6.13;100.00
22255;BME280;11296;42.684;23.322;2022-10-18T05:28:57;96678.13;;;6.09;100.00
22255;BME280;11296;42.684;23.322;2022-10-18T05:31:23;96702.22;;;6.05;100.00
22255;BME280;11296;42.684;23.322;2022-10-18T05:33:49;96680.50;;;6.03;100.00
22255;BME280;11296;42.684;23.322;2022-10-18T05:36:14;96679.66;;;6.10;100.00
22255;BME280;11296;42.684;23.322;2022-10-18T05:38:41;96667.91;;;6.00;100.00
22255;BME280;11296;42.684;23.322;2022-10-18T05:41:11;96672.84;;;6.05;100.00
22255;BME280;11296;42.684;23.322;2022-10-18T05:43:37;96698.19;;;6.27;100.00
22255;BME280;11296;42.684;23.322;2022-10-18T05:46:06;96660.59;;;6.08;100.00
22255;BME280;11296;42.684;23.322;2022-10-18T05:48:33;96633.28;;;5.93;100.00
22255;BME280;11296;42.684;23.322;2022-10-18T05:50:59;96694.38;;;6.25;100.00
22255;BME280;11296;42.684;23.322;2022-10-18T05:53:28;96723.50;;;6.49;100.00
22255;BME280;11296;42.684;23.322;2022-10-18T05:55:53;96718.16;;;6.49;100.00
22255;BME280;11296;42.684;23.322;2022-10-18T05:58:19;96651.41;;;6.09;100.00
22255;BME280;11296;42.684;23.322;2022-10-18T06:00:46;96660.00;;;6.27;100.00
22255;BME280;11296;42.684;23.322;2022-10-18T06:03:12;96683.41;;;6.49;100.00
22255;BME280;11296;42.684;23.322;2022-10-18T06:05:38;96681.44;;;6.53;100.00
22255;BME280;11296;42.684;23.322;2022-10-18T06:08:03;96645.13;;;6.26;100.00
22255;BME280;11296;42.684;23.322;2022-10-18T06:10:29;96697.91;;;6.79;100.00
22255;BME280;11296;42.684;23.322;2022-10-18T06:12:55;96670.94;;;6.69;100.00
22255;BME280;11296;42.684;23.322;2022-10-18T06:15:20;96657.09;;;6.74;100.00
22255;BME280;11296;42.684;23.322;2022-10-18T06:17:46;96657.28;;;6.91;100.00
22255;BME280;11296;42.684;23.322;2022-10-18T06:20:12;96657.63;;;6.93;100.00
22255;BME280;11296;42.684;23.322;2022-10-18T06:22:37;96663.47;;;7.11;100.00
22255;BME280;11296;42.684;23.322;2022-10-18T06:25:03;96678.94;;;7.26;100.00
22255;BME280;11296;42.684;23.322;2022-10-18T06:27:29;96706.66;;;7.63;100.00
22255;BME280;11296;42.684;23.322;2022-10-18T06:29:56;96679.03;;;7.42;100.00
22255;BME280;11296;42.684;23.322;2022-10-18T06:32:21;96687.97;;;7.59;100.00
22255;BME280;11296;42.684;23.322;2022-10-18T06:34:47;96674.13;;;7.64;100.00
22255;BME280;11296;42.684;23.322;2022-10-18T06:37:12;96680.63;;;7.63;100.00
22255;BME280;11296;42.684;23.322;2022-10-18T06:39:38;96663.09;;;7.59;100.00
22255;BME280;11296;42.684;23.322;2022-10-18T06:42:05;96648.13;;;7.38;100.00
22255;BME280;11296;42.684;23.322;2022-10-18T06:44:32;96647.31;;;7.41;100.00
22255;BME280;11296;42.684;23.322;2022-10-18T06:46:58;96672.25;;;7.61;100.00
22255;BME280;11296;42.684;23.322;2022-10-18T06:49:24;96650.31;;;7.46;100.00
22255;BME280;11296;42.684;23.322;2022-10-18T06:51:49;96679.91;;;7.82;100.00
22255;BME280;11296;42.684;23.322;2022-10-18T06:54:15;96707.25;;;8.16;100.00
22255;BME280;11296;42.684;23.322;2022-10-18T06:56:41;96624.28;;;7.70;100.00
22255;BME280;11296;42.684;23.322;2022-10-18T06:59:06;96667.50;;;7.92;100.00
22255;BME280;11296;42.684;23.322;2022-10-18T07:01:32;96678.66;;;8.10;100.00
22255;BME280;11296;42.684;23.322;2022-10-18T07:03:59;96661.81;;;8.09;100.00
22255;BME280;11296;42.684;23.322;2022-10-18T07:06:25;96652.47;;;8.17;100.00
22255;BME280;11296;42.684;23.322;2022-10-18T07:08:51;96674.03;;;8.34;100.00
22255;BME280;11296;42.684;23.322;2022-10-18T07:11:26;96670.78;;;8.42;100.00
22255;BME280;11296;42.684;23.322;2022-10-18T07:13:59;96652.78;;;8.43;100.00
22255;BME280;11296;42.684;23.322;2022-10-18T07:16:27;96676.03;;;8.49;100.00
22255;BME280;11296;42.684;23.322;2022-10-18T07:18:53;96670.78;;;8.42;100.00
22255;BME280;11296;42.684;23.322;2022-10-18T07:21:21;96680.50;;;8.56;100.00
22255;BME280;11296;42.684;23.322;2022-10-18T07:23:50;96618.22;;;8.29;100.00
22255;BME280;11296;42.684;23.322;2022-10-18T07:26:21;96642.31;;;8.48;100.00
22255;BME280;11296;42.684;23.322;2022-10-18T07:28:54;96646.72;;;8.58;100.00
22255;BME280;11296;42.684;23.322;2022-10-18T07:31:21;96632.97;;;8.56;100.00
22255;BME280;11296;42.684;23.322;2022-10-18T07:33:54;96669.78;;;8.91;100.00
22255;BME280;11296;42.684;23.322;2022-10-18T07:37:12;96632.50;;;8.77;100.00
22255;BME280;11296;42.684;23.322;2022-10-18T07:40:33;96656.66;;;9.13;100.00
22255;BME280;11296;42.684;23.322;2022-10-18T07:42:59;96621.25;;;9.02;100.00
22255;BME280;11296;42.684;23.322;2022-10-18T07:45:24;96605.22;;;8.99;100.00
22255;BME280;11296;42.684;23.322;2022-10-18T07:47:57;96679.22;;;9.64;100.00
22255;BME280;11296;42.684;23.322;2022-10-18T07:50:26;96641.13;;;9.53;100.00
22255;BME280;11296;42.684;23.322;2022-10-18T07:52:54;96577.78;;;9.23;100.00
22255;BME280;11296;42.684;23.322;2022-10-18T07:55:20;96619.88;;;9.58;100.00
22255;BME280;11296;42.684;23.322;2022-10-18T07:57:46;96666.69;;;9.90;100.00
22255;BME280;11296;42.684;23.322;2022-10-18T08:00:12;96620.97;;;9.61;100.00
22255;BME280;11296;42.684;23.322;2022-10-18T08:02:40;96673.06;;;10.12;100.00
22255;BME280;11296;42.684;23.322;2022-10-18T08:05:06;96614.34;;;9.94;100.00
22255;BME280;11296;42.684;23.322;2022-10-18T08:07:32;96643.63;;;10.21;100.00
22255;BME280;11296;42.684;23.322;2022-10-18T08:09:58;96632.47;;;10.35;100.00
22255;BME280;11296;42.684;23.322;2022-10-18T08:12:24;96570.19;;;10.08;100.00
22255;BME280;11296;42.684;23.322;2022-10-18T08:14:50;96624.00;;;10.49;100.00
22255;BME280;11296;42.684;23.322;2022-10-18T08:17:15;96613.97;;;10.37;100.00
22255;BME280;11296;42.684;23.322;2022-10-18T08:19:41;96609.72;;;10.77;100.00
22255;BME280;11296;42.684;23.322;2022-10-18T08:22:07;96587.31;;;10.80;100.00
22255;BME280;11296;42.684;23.322;2022-10-18T08:24:32;96563.63;;;10.75;100.00
22255;BME280;11296;42.684;23.322;2022-10-18T08:26:58;96588.63;;;11.01;100.00
22255;BME280;11296;42.684;23.322;2022-10-18T08:29:24;96626.09;;;11.21;100.00
22255;BME280;11296;42.684;23.322;2022-10-18T08:31:50;96601.94;;;11.30;100.00
22255;BME280;11296;42.684;23.322;2022-10-18T08:34:16;96604.41;;;11.37;100.00
22255;BME280;11296;42.684;23.322;2022-10-18T08:36:41;96603.09;;;11.41;100.00
22255;BME280;11296;42.684;23.322;2022-10-18T08:39:08;96562.22;;;11.21;100.00
22255;BME280;11296;42.684;23.322;2022-10-18T08:41:48;96579.06;;;11.47;100.00
22255;BME280;11296;42.684;23.322;2022-10-18T08:46:47;96547.28;;;11.76;100.00
22255;BME280;11296;42.684;23.322;2022-10-18T08:49:22;96535.69;;;12.40;100.00
22255;BME280;11296;42.684;23.322;2022-10-18T08:51:51;96526.31;;;13.03;100.00
22255;BME280;11296;42.684;23.322;2022-10-18T08:54:27;96589.38;;;14.03;100.00
22255;BME280;11296;42.684;23.322;2022-10-18T08:57:00;96529.06;;;14.21;99.30
22255;BME280;11296;42.684;23.322;2022-10-18T08:59:38;96505.22;;;15.17;93.34
22255;BME280;11296;42.684;23.322;2022-10-18T09:07:45;96556.69;;;20.87;60.25
22255;BME280;11296;42.684;23.322;2022-10-18T09:10:40;96549.97;;;20.88;55.21
22255;BME280;11296;42.684;23.322;2022-10-18T09:16:05;96535.28;;;23.47;46.59
22255;BME280;11296;42.684;23.322;2022-10-18T09:21:23;96510.09;;;23.19;43.71
22255;BME280;11296;42.684;23.322;2022-10-18T09:24:11;96549.47;;;24.12;41.70
22255;BME280;11296;42.684;23.322;2022-10-18T09:26:43;96547.00;;;23.72;43.05
22255;BME280;11296;42.684;23.322;2022-10-18T09:32:31;96526.16;;;25.80;38.68
22255;BME280;11296;42.684;23.322;2022-10-18T09:35:23;96524.31;;;26.83;36.03
22255;BME280;11296;42.684;23.322;2022-10-18T09:37:59;96504.78;;;26.81;35.28
22255;BME280;11296;42.684;23.322;2022-10-18T09:40:29;96482.38;;;26.43;35.32
22255;BME280;11296;42.684;23.322;2022-10-18T09:43:04;96511.84;;;26.90;33.80
22255;BME280;11296;42.684;23.322;2022-10-18T09:45:34;96504.50;;;26.92;33.92
22255;BME280;11296;42.684;23.322;2022-10-18T09:50:45;96507.50;;;27.30;34.04
22255;BME280;11296;42.684;23.322;2022-10-18T09:56:06;96498.97;;;26.92;35.05
22255;BME280;11296;42.684;23.322;2022-10-18T09:58:45;96429.69;;;26.62;33.69
22255;BME280;11296;42.684;23.322;2022-10-18T10:01:43;96489.16;;;28.19;32.80
22255;BME280;11296;42.684;23.322;2022-10-18T10:04:09;96456.13;;;27.35;32.80
22255;BME280;11296;42.684;23.322;2022-10-18T10:06:35;96443.22;;;28.54;31.61
22255;BME280;11296;42.684;23.322;2022-10-18T10:17:31;96398.34;;;28.93;29.50
22255;BME280;11296;42.684;23.322;2022-10-18T11:23:49;96265.44;;;29.82;22.35
22255;BME280;11296;42.684;23.322;2022-10-18T11:29:28;96311.63;;;29.87;21.97
22255;BME280;11296;42.684;23.322;2022-10-18T11:38:01;96262.50;;;29.48;21.68
22255;BME280;11296;42.684;23.322;2022-10-18T11:43:39;96275.81;;;31.26;20.30
22255;BME280;11296;42.684;23.322;2022-10-18T12:00:51;96250.34;;;32.29;18.67
22255;BME280;11296;42.684;23.322;2022-10-18T12:07:57;96209.59;;;32.72;17.73
22255;BME280;11296;42.684;23.322;2022-10-18T12:10:23;96203.47;;;31.80;17.35
22255;BME280;11296;42.684;23.322;2022-10-18T12:12:59;96210.81;;;31.85;17.97
22255;BME280;11296;42.684;23.322;2022-10-18T12:15:29;96175.72;;;32.56;17.08
22255;BME280;11296;42.684;23.322;2022-10-18T12:17:59;96212.56;;;33.83;16.72
22255;BME280;11296;42.684;23.322;2022-10-18T12:20:32;96185.44;;;33.95;16.21
22255;BME280;11296;42.684;23.322;2022-10-18T12:23:08;96178.25;;;33.31;16.21
22255;BME280;11296;42.684;23.322;2022-10-18T12:25:38;96207.38;;;32.89;15.82
22255;BME280;11296;42.684;23.322;2022-10-18T12:33:19;96164.44;;;32.64;16.17
22255;BME280;11296;42.684;23.322;2022-10-18T12:36:03;96172.47;;;32.88;16.20
22255;BME280;11296;42.684;23.322;2022-10-18T12:38:32;96158.81;;;33.42;15.67
22255;BME280;11296;42.684;23.322;2022-10-18T12:40:59;96128.53;;;34.00;15.31
22255;BME280;11296;42.684;23.322;2022-10-18T12:43:28;96158.78;;;33.83;15.50
22255;BME280;11296;42.684;23.322;2022-10-18T12:46:00;96166.84;;;34.52;15.28
22255;BME280;11296;42.684;23.322;2022-10-18T12:48:43;96176.13;;;34.66;15.05
22255;BME280;11296;42.684;23.322;2022-10-18T12:51:17;96122.66;;;33.44;14.89
22255;BME280;11296;42.684;23.322;2022-10-18T12:53:46;96131.34;;;33.48;14.82
22255;BME280;11296;42.684;23.322;2022-10-18T13:09:43;96122.91;;;34.43;14.07
22255;BME280;11296;42.684;23.322;2022-10-18T13:20:36;96112.31;;;33.66;14.80
22255;BME280;11296;42.684;23.322;2022-10-18T13:33:51;96148.34;;;33.83;14.40
22255;BME280;11296;42.684;23.322;2022-10-18T13:44:27;96092.16;;;33.68;14.51
22255;BME280;11296;42.684;23.322;2022-10-18T13:49:46;96088.44;;;33.53;14.45
22255;BME280;11296;42.684;23.322;2022-10-18T14:01:32;96106.06;;;33.77;14.69
22255;BME280;11296;42.684;23.322;2022-10-18T14:06:38;96077.47;;;33.15;14.89
22255;BME280;11296;42.684;23.322;2022-10-18T14:09:23;96054.50;;;32.96;15.06
22255;BME280;11296;42.684;23.322;2022-10-18T14:12:00;96079.53;;;33.36;14.76
22255;BME280;11296;42.684;23.322;2022-10-18T14:14:35;96067.38;;;32.60;14.67
22255;BME280;11296;42.684;23.322;2022-10-18T14:20:05;96101.13;;;31.32;16.05
22255;BME280;11296;42.684;23.322;2022-10-18T14:28:15;96095.94;;;31.75;15.15
22255;BME280;11296;42.684;23.322;2022-10-18T14:31:03;96075.44;;;31.61;15.24
22255;BME280;11296;42.684;23.322;2022-10-18T14:36:11;96056.97;;;31.56;15.68
22255;BME280;11296;42.684;23.322;2022-10-18T14:38:49;96034.16;;;31.76;15.70
22255;BME280;11296;42.684;23.322;2022-10-18T14:43:45;96041.16;;;31.48;15.64
22255;BME280;11296;42.684;23.322;2022-10-18T14:46:17;96076.53;;;31.38;16.11
22255;BME280;11296;42.684;23.322;2022-10-18T14:48:59;96054.44;;;29.80;16.71
22255;BME280;11296;42.684;23.322;2022-10-18T14:51:27;96044.38;;;28.20;17.92
22255;BME280;11296;42.684;23.322;2022-10-18T14:53:55;96018.06;;;26.66;18.69
22255;BME280;11296;42.684;23.322;2022-10-18T14:56:29;96031.97;;;25.87;19.28
22255;BME280;11296;42.684;23.322;2022-10-18T14:59:01;96062.19;;;25.15;20.04
22255;BME280;11296;42.684;23.322;2022-10-18T15:04:31;96032.44;;;23.71;22.00
22255;BME280;11296;42.684;23.322;2022-10-18T15:07:06;96057.13;;;23.32;22.30
22255;BME280;11296;42.684;23.322;2022-10-18T15:09:40;96049.25;;;22.83;22.61
22255;BME280;11296;42.684;23.322;2022-10-18T15:12:09;96043.31;;;22.48;23.80
22255;BME280;11296;42.684;23.322;2022-10-18T15:14:38;96004.16;;;21.97;24.09
22255;BME280;11296;42.684;23.322;2022-10-18T15:17:17;96058.63;;;21.82;24.51
22255;BME280;11296;42.684;23.322;2022-10-18T15:20:03;96061.09;;;21.18;26.35
22255;BME280;11296;42.684;23.322;2022-10-18T15:22:42;96056.13;;;20.57;27.74
22255;BME280;11296;42.684;23.322;2022-10-18T15:25:13;96081.06;;;20.43;27.94
22255;BME280;11296;42.684;23.322;2022-10-18T15:27:47;95996.13;;;19.48;28.56
22255;BME280;11296;42.684;23.322;2022-10-18T15:30:17;96064.78;;;19.69;29.87
22255;BME280;11296;42.684;23.322;2022-10-18T15:32:59;96021.75;;;19.17;30.81
22255;BME280;11296;42.684;23.322;2022-10-18T15:35:28;95986.66;;;18.81;33.39
22255;BME280;11296;42.684;23.322;2022-10-18T15:37:56;96034.44;;;19.04;31.25
22255;BME280;11296;42.684;23.322;2022-10-18T15:42:50;96043.88;;;18.92;31.80
22255;BME280;11296;42.684;23.322;2022-10-18T15:50:52;95980.69;;;18.16;33.17
22255;BME280;11296;42.684;23.322;2022-10-18T15:55:47;96065.66;;;18.36;34.51
22255;BME280;11296;42.684;23.322;2022-10-18T15:58:29;95989.78;;;17.68;36.07
22255;BME280;11296;42.684;23.322;2022-10-18T16:00:59;96037.34;;;17.95;36.44
22255;BME280;11296;42.684;23.322;2022-10-18T16:03:26;95985.97;;;17.49;37.12
22255;BME280;11296;42.684;23.322;2022-10-18T16:05:58;96052.41;;;17.85;37.78
22255;BME280;11296;42.684;23.322;2022-10-18T16:08:26;96048.34;;;17.58;39.99
22255;BME280;11296;42.684;23.322;2022-10-18T16:10:59;96080.44;;;17.49;41.77
22255;BME280;11296;42.684;23.322;2022-10-18T16:13:39;95994.44;;;16.36;42.71
22255;BME280;11296;42.684;23.322;2022-10-18T16:16:15;96034.53;;;16.77;42.78
22255;BME280;11296;42.684;23.322;2022-10-18T16:18:44;96039.19;;;16.71;44.87
22255;BME280;11296;42.684;23.322;2022-10-18T16:21:23;96026.28;;;16.66;45.79
22255;BME280;11296;42.684;23.322;2022-10-18T16:24:00;96054.50;;;16.74;46.92
22255;BME280;11296;42.684;23.322;2022-10-18T16:26:29;96008.22;;;16.32;46.74
22255;BME280;11296;42.684;23.322;2022-10-18T16:28:56;96006.47;;;16.29;47.33
22255;BME280;11296;42.684;23.322;2022-10-18T16:31:24;96057.09;;;16.58;49.04
22255;BME280;11296;42.684;23.322;2022-10-18T16:33:51;96058.06;;;16.55;50.35
22255;BME280;11296;42.684;23.322;2022-10-18T16:36:21;96054.97;;;16.16;51.76
22255;BME280;11296;42.684;23.322;2022-10-18T16:38:48;96048.47;;;16.08;53.50
22255;BME280;11296;42.684;23.322;2022-10-18T16:41:14;96053.25;;;15.93;53.84
22255;BME280;11296;42.684;23.322;2022-10-18T16:43:42;96067.69;;;15.84;54.80
22255;BME280;11296;42.684;23.322;2022-10-18T16:46:14;96082.44;;;15.78;57.17
22255;BME280;11296;42.684;23.322;2022-10-18T16:48:41;96059.91;;;15.72;57.28
22255;BME280;11296;42.684;23.322;2022-10-18T16:51:08;96073.75;;;15.74;55.17
22255;BME280;11296;42.684;23.322;2022-10-18T16:53:34;96065.56;;;15.68;56.01
22255;BME280;11296;42.684;23.322;2022-10-18T16:56:03;96043.19;;;15.53;56.49
22255;BME280;11296;42.684;23.322;2022-10-18T16:58:31;96049.78;;;15.46;54.02
22255;BME280;11296;42.684;23.322;2022-10-18T17:00:58;96030.41;;;15.39;52.86